sensor_id;sensor_type;location;lat;lon;timestamp;pressure;altitude;pressure_sealevel;temperature;humidity
46614;BME280;32338;50.430;6.806;2023-04-26T00:02:11;65555.56;;;1.26;100.00
46614;BME280;32338;50.430;6.806;2023-04-26T00:04:38;65556.47;;;1.25;100.00
46614;BME280;32338;50.430;6.806;2023-04-26T00:07:05;65557.38;;;1.23;100.00
46614;BME280;32338;50.430;6.806;2023-04-26T00:09:33;65548.31;;;1.20;100.00
46614;BME280;32338;50.430;6.806;2023-04-26T00:11:59;65544.19;;;1.13;100.00
46614;BME280;32338;50.430;6.806;2023-04-26T00:14:27;65536.00;;;1.08;100.00
46614;BME280;32338;50.430;6.806;2023-04-26T00:16:53;65531.34;;;1.02;100.00
46614;BME280;32338;50.430;6.806;2023-04-26T00:19:20;65530.00;;;0.98;100.00
46614;BME280;32338;50.430;6.806;2023-04-26T00:21:48;65510.66;;;0.83;100.00
46614;BME280;32338;50.430;6.806;2023-04-26T00:24:14;65499.50;;;0.72;100.00
46614;BME280;32338;50.430;6.806;2023-04-26T00:26:42;65497.28;;;0.70;100.00
46614;BME280;32338;50.430;6.806;2023-04-26T00:29:09;65479.97;;;0.54;100.00
46614;BME280;32338;50.430;6.806;2023-04-26T00:31:35;65468.81;;;0.44;100.00
46614;BME280;32338;50.430;6.806;2023-04-26T00:34:02;65462.09;;;0.38;100.00
46614;BME280;32338;50.430;6.806;2023-04-26T00:36:29;65461.19;;;0.39;100.00
46614;BME280;32338;50.430;6.806;2023-04-26T00:38:56;65462.44;;;0.36;100.00
46614;BME280;32338;50.430;6.806;2023-04-26T00:41:23;65465.09;;;0.43;100.00
46614;BME280;32338;50.430;6.806;2023-04-26T00:43:51;65478.84;;;0.53;100.00
46614;BME280;32338;50.430;6.806;2023-04-26T00:46:17;65483.66;;;0.55;100.00
46614;BME280;32338;50.430;6.806;2023-04-26T00:48:44;65482.19;;;0.56;100.00
46614;BME280;32338;50.430;6.806;2023-04-26T00:51:11;65481.09;;;0.55;100.00
46614;BME280;32338;50.430;6.806;2023-04-26T00:53:38;65478.84;;;0.53;100.00
46614;BME280;32338;50.430;6.806;2023-04-26T00:56:06;65473.06;;;0.45;100.00
46614;BME280;32338;50.430;6.806;2023-04-26T00:58:35;65470.25;;;0.43;100.00
46614;BME280;32338;50.430;6.806;2023-04-26T01:01:03;65458.03;;;0.39;100.00
46614;BME280;32338;50.430;6.806;2023-04-26T01:03:30;65468.03;;;0.41;100.00
46614;BME280;32338;50.430;6.806;2023-04-26T01:05:57;65468.56;;;0.41;100.00
46614;BME280;32338;50.430;6.806;2023-04-26T01:08:23;65462.09;;;0.38;100.00
46614;BME280;32338;50.430;6.806;2023-04-26T01:10:51;65459.88;;;0.36;100.00
46614;BME280;32338;50.430;6.806;2023-04-26T01:13:18;65461.88;;;0.35;100.00
46614;BME280;32338;50.430;6.806;2023-04-26T01:15:45;65449.25;;;0.26;100.00
46614;BME280;32338;50.430;6.806;2023-04-26T01:18:13;65452.53;;;0.22;100.00
46614;BME280;32338;50.430;6.806;2023-04-26T01:20:40;65436.63;;;0.17;100.00
46614;BME280;32338;50.430;6.806;2023-04-26T01:23:09;65436.56;;;0.09;100.00
46614;BME280;32338;50.430;6.806;2023-04-26T01:25:35;65427.50;;;0.06;100.00
46614;BME280;32338;50.430;6.806;2023-04-26T01:28:02;65427.81;;;0.04;100.00
46614;BME280;32338;50.430;6.806;2023-04-26T01:30:29;65427.81;;;0.04;100.00
46614;BME280;32338;50.430;6.806;2023-04-26T01:32:55;65423.38;;;-0.01;100.00
46614;BME280;32338;50.430;6.806;2023-04-26T01:35:22;65419.13;;;-0.02;100.00
46614;BME280;32338;50.430;6.806;2023-04-26T01:37:48;65415.22;;;-0.06;100.00
46614;BME280;32338;50.430;6.806;2023-04-26T01:40:16;65408.72;;;-0.09;100.00
46614;BME280;32338;50.430;6.806;2023-04-26T01:42:43;65407.97;;;-0.12;100.00
46614;BME280;32338;50.430;6.806;2023-04-26T01:45:10;65404.94;;;-0.18;100.00
46614;BME280;32338;50.430;6.806;2023-04-26T01:47:37;65401.06;;;-0.21;100.00
46614;BME280;32338;50.430;6.806;2023-04-26T01:50:04;65400.50;;;-0.22;100.00
46614;BME280;32338;50.430;6.806;2023-04-26T01:52:31;65393.47;;;-0.26;100.00
46614;BME280;32338;50.430;6.806;2023-04-26T01:54:57;65385.97;;;-0.35;100.00
46614;BME280;32338;50.430;6.806;2023-04-26T01:57:25;65379.50;;;-0.39;100.00
46614;BME280;32338;50.430;6.806;2023-04-26T01:59:52;65371.34;;;-0.44;100.00
46614;BME280;32338;50.430;6.806;2023-04-26T02:02:21;65369.81;;;-0.50;100.00
46614;BME280;32338;50.430;6.806;2023-04-26T02:04:47;65367.00;;;-0.53;100.00
46614;BME280;32338;50.430;6.806;2023-04-26T02:07:14;65365.34;;;-0.54;100.00
46614;BME280;32338;50.430;6.806;2023-04-26T02:09:40;65369.03;;;-0.53;100.00
46614;BME280;32338;50.430;6.806;2023-04-26T02:12:07;65372.41;;;-0.50;100.00
46614;BME280;32338;50.430;6.806;2023-04-26T02:14:35;65365.00;;;-0.52;100.00
46614;BME280;32338;50.430;6.806;2023-04-26T02:17:02;65363.88;;;-0.53;100.00
46614;BME280;32338;50.430;6.806;2023-04-26T02:19:29;65361.09;;;-0.56;100.00
46614;BME280;32338;50.430;6.806;2023-04-26T02:21:57;65366.81;;;-0.55;100.00
46614;BME280;32338;50.430;6.806;2023-04-26T02:24:24;65368.69;;;-0.51;100.00
46614;BME280;32338;50.430;6.806;2023-04-26T02:26:50;65359.44;;;-0.57;100.00
46614;BME280;32338;50.430;6.806;2023-04-26T02:29:18;65362.34;;;-0.59;100.00
46614;BME280;32338;50.430;6.806;2023-04-26T02:31:46;65352.94;;;-0.61;100.00
46614;BME280;32338;50.430;6.806;2023-04-26T02:34:13;65354.97;;;-0.61;100.00
46614;BME280;32338;50.430;6.806;2023-04-26T02:36:41;65353.66;;;-0.65;100.00
46614;BME280;32338;50.430;6.806;2023-04-26T02:39:07;65348.06;;;-0.70;100.00
46614;BME280;32338;50.430;6.806;2023-04-26T02:41:34;65346.94;;;-0.71;100.00
46614;BME280;32338;50.430;6.806;2023-04-26T02:44:00;65351.97;;;-0.67;100.00
46614;BME280;32338;50.430;6.806;2023-04-26T02:46:27;65353.66;;;-0.65;100.00
46614;BME280;32338;50.430;6.806;2023-04-26T02:48:55;65351.41;;;-0.67;100.00
46614;BME280;32338;50.430;6.806;2023-04-26T02:51:21;65345.25;;;-0.73;100.00
46614;BME280;32338;50.430;6.806;2023-04-26T02:53:48;65346.75;;;-0.74;100.00
46614;BME280;32338;50.430;6.806;2023-04-26T02:56:14;65343.59;;;-0.74;100.00
46614;BME280;32338;50.430;6.806;2023-04-26T02:58:41;65338.22;;;-0.77;100.00
46614;BME280;32338;50.430;6.806;2023-04-26T03:01:08;65340.81;;;-0.77;100.00
46614;BME280;32338;50.430;6.806;2023-04-26T03:03:34;65331.75;;;-0.80;100.00
46614;BME280;32338;50.430;6.806;2023-04-26T03:06:03;65336.34;;;-0.81;100.00
46614;BME280;32338;50.430;6.806;2023-04-26T03:08:30;65310.91;;;-1.02;100.00
46614;BME280;32338;50.430;6.806;2023-04-26T03:10:59;65301.66;;;-1.08;100.00
46614;BME280;32338;50.430;6.806;2023-04-26T03:13:25;65303.09;;;-1.09;100.00
46614;BME280;32338;50.430;6.806;2023-04-26T03:15:52;65305.34;;;-1.07;100.00
46614;BME280;32338;50.430;6.806;2023-04-26T03:18:19;65305.44;;;-1.00;100.00
46614;BME280;32338;50.430;6.806;2023-04-26T03:20:45;65317.03;;;-0.96;100.00
46614;BME280;32338;50.430;6.806;2023-04-26T03:23:13;65312.03;;;-1.01;100.00
46614;BME280;32338;50.430;6.806;2023-04-26T03:25:40;65298.44;;;-1.16;100.00
46614;BME280;32338;50.430;6.806;2023-04-26T03:28:07;65278.59;;;-1.32;100.00
46614;BME280;32338;50.430;6.806;2023-04-26T03:30:33;65268.78;;;-1.39;100.00
46614;BME280;32338;50.430;6.806;2023-04-26T03:33:00;65275.03;;;-1.38;100.00
46614;BME280;32338;50.430;6.806;2023-04-26T03:35:26;65281.16;;;-1.32;100.00
46614;BME280;32338;50.430;6.806;2023-04-26T03:37:53;65272.81;;;-1.40;100.00
46614;BME280;32338;50.430;6.806;2023-04-26T03:40:21;65270.56;;;-1.42;100.00
46614;BME280;32338;50.430;6.806;2023-04-26T03:42:47;65276.13;;;-1.37;100.00
46614;BME280;32338;50.430;6.806;2023-04-26T03:45:14;65279.81;;;-1.36;100.00
46614;BME280;32338;50.430;6.806;2023-04-26T03:47:41;65278.81;;;-1.29;100.00
46614;BME280;32338;50.430;6.806;2023-04-26T03:50:08;65283.59;;;-1.27;100.00
46614;BME280;32338;50.430;6.806;2023-04-26T03:52:35;65269.44;;;-1.43;100.00
46614;BME280;32338;50.430;6.806;2023-04-26T03:55:01;65258.88;;;-1.53;100.00
46614;BME280;32338;50.430;6.806;2023-04-26T03:57:29;65258.19;;;-1.49;100.00
46614;BME280;32338;50.430;6.806;2023-04-26T03:59:56;65260.75;;;-1.49;100.00
46614;BME280;32338;50.430;6.806;2023-04-26T04:02:23;65268.34;;;-1.44;100.00
46614;BME280;32338;50.430;6.806;2023-04-26T04:04:49;65263.22;;;-1.44;100.00
46614;BME280;32338;50.430;6.806;2023-04-26T04:07:16;65254.50;;;-1.50;100.00
46614;BME280;32338;50.430;6.806;2023-04-26T04:09:43;65252.63;;;-1.54;100.00
46614;BME280;32338;50.430;6.806;2023-04-26T04:12:09;65254.97;;;-1.56;100.00
46614;BME280;32338;50.430;6.806;2023-04-26T04:14:37;65262.44;;;-1.47;100.00
46614;BME280;32338;50.430;6.806;2023-04-26T04:17:04;65270.03;;;-1.42;100.00
46614;BME280;32338;50.430;6.806;2023-04-26T04:19:30;65277.25;;;-1.36;100.00
46614;BME280;32338;50.430;6.806;2023-04-26T04:21:57;65278.81;;;-1.29;100.00
46614;BME280;32338;50.430;6.806;2023-04-26T04:24:24;65278.94;;;-1.34;100.00
46614;BME280;32338;50.430;6.806;2023-04-26T04:26:50;65267.88;;;-1.37;100.00
46614;BME280;32338;50.430;6.806;2023-04-26T04:29:17;65284.50;;;-1.29;100.00
46614;BME280;32338;50.430;6.806;2023-04-26T04:31:45;65283.59;;;-1.27;100.00
46614;BME280;32338;50.430;6.806;2023-04-26T04:34:12;65283.03;;;-1.28;100.00
46614;BME280;32338;50.430;6.806;2023-04-26T04:36:38;65256.66;;;-1.55;100.00
46614;BME280;32338;50.430;6.806;2023-04-26T04:39:05;65237.13;;;-1.73;100.00
46614;BME280;32338;50.430;6.806;2023-04-26T04:41:36;65221.22;;;-1.85;100.00
46614;BME280;32338;50.430;6.806;2023-04-26T04:44:03;65215.97;;;-1.92;100.00
46614;BME280;32338;50.430;6.806;2023-04-26T04:46:30;65207.47;;;-1.96;100.00
46614;BME280;32338;50.430;6.806;2023-04-26T04:48:58;65230.09;;;-1.77;100.00
46614;BME280;32338;50.430;6.806;2023-04-26T04:51:25;65251.63;;;-1.59;100.00
46614;BME280;32338;50.430;6.806;2023-04-26T04:53:52;65266.34;;;-1.43;100.00
46614;BME280;32338;50.430;6.806;2023-04-26T04:56:19;65272.69;;;-1.35;100.00
46614;BME280;32338;50.430;6.806;2023-04-26T04:58:46;65290.97;;;-1.25;100.00
46614;BME280;32338;50.430;6.806;2023-04-26T05:01:12;65294.19;;;-1.18;100.00
46614;BME280;32338;50.430;6.806;2023-04-26T05:03:39;65295.66;;;-1.19;100.00
46614;BME280;32338;50.430;6.806;2023-04-26T05:06:07;65297.19;;;-1.12;100.00
46614;BME280;32338;50.430;6.806;2023-04-26T05:08:34;65297.31;;;-1.17;100.00
46614;BME280;32338;50.430;6.806;2023-04-26T05:11:00;65282.72;;;-1.26;100.00
46614;BME280;32338;50.430;6.806;2023-04-26T05:13:27;65280.59;;;-1.33;100.00
46614;BME280;32338;50.430;6.806;2023-04-26T05:15:55;65315.72;;;-1.00;100.00
46614;BME280;32338;50.430;6.806;2023-04-26T05:18:21;65361.09;;;-0.56;100.00
46614;BME280;32338;50.430;6.806;2023-04-26T05:20:48;65392.88;;;-0.26;100.00
46614;BME280;32338;50.430;6.806;2023-04-26T05:23:16;65391.78;;;-0.27;100.00
46614;BME280;32338;50.430;6.806;2023-04-26T05:25:42;65368.34;;;-0.49;100.00
46614;BME280;32338;50.430;6.806;2023-04-26T05:28:09;65366.25;;;-0.56;100.00
46614;BME280;32338;50.430;6.806;2023-04-26T05:30:38;65351.63;;;-0.64;100.00
46614;BME280;32338;50.430;6.806;2023-04-26T05:33:04;65344.94;;;-0.71;100.00
46614;BME280;32338;50.430;6.806;2023-04-26T05:35:32;65375.59;;;-0.42;100.00
46614;BME280;32338;50.430;6.806;2023-04-26T05:37:58;65429.72;;;0.08;100.00
46614;BME280;32338;50.430;6.806;2023-04-26T05:40:26;65442.91;;;0.18;100.00
46614;BME280;32338;50.430;6.806;2023-04-26T05:42:53;65431.41;;;0.09;100.00
46614;BME280;32338;50.430;6.806;2023-04-26T05:45:19;65452.75;;;0.24;100.00
46614;BME280;32338;50.430;6.806;2023-04-26T05:47:47;65448.13;;;0.25;100.00
46614;BME280;32338;50.430;6.806;2023-04-26T05:50:13;65440.09;;;0.15;100.00
46614;BME280;32338;50.430;6.806;2023-04-26T05:52:40;65420.38;;;-0.06;100.00
46614;BME280;32338;50.430;6.806;2023-04-26T05:55:07;65409.63;;;-0.11;100.00
46614;BME280;32338;50.430;6.806;2023-04-26T05:57:35;65397.16;;;-0.25;100.00
46614;BME280;32338;50.430;6.806;2023-04-26T06:00:03;65406.84;;;-0.13;100.00
46614;BME280;32338;50.430;6.806;2023-04-26T06:02:30;65420.25;;;-0.01;100.00
46614;BME280;32338;50.430;6.806;2023-04-26T06:04:57;65420.78;;;-0.01;100.00
46614;BME280;32338;50.430;6.806;2023-04-26T06:07:23;65412.44;;;-0.08;100.00
46614;BME280;32338;50.430;6.806;2023-04-26T06:09:50;65435.66;;;0.11;100.00
46614;BME280;32338;50.430;6.806;2023-04-26T06:12:16;65440.66;;;0.15;100.00
46614;BME280;32338;50.430;6.806;2023-04-26T06:14:44;65451.84;;;0.26;100.00
46614;BME280;32338;50.430;6.806;2023-04-26T06:17:11;65455.03;;;0.34;100.00
46614;BME280;32338;50.430;6.806;2023-04-26T06:19:38;65469.34;;;0.44;100.00
46614;BME280;32338;50.430;6.806;2023-04-26T06:22:04;65480.50;;;0.55;100.00
46614;BME280;32338;50.430;6.806;2023-04-26T06:24:31;65483.31;;;0.57;100.00
46614;BME280;32338;50.430;6.806;2023-04-26T06:26:58;65491.13;;;0.64;100.00
46614;BME280;32338;50.430;6.806;2023-04-26T06:29:24;65503.75;;;0.74;100.00
46614;BME280;32338;50.430;6.806;2023-04-26T06:31:52;65502.84;;;0.75;100.00
46614;BME280;32338;50.430;6.806;2023-04-26T06:34:19;65515.81;;;0.83;100.00
46614;BME280;32338;50.430;6.806;2023-04-26T06:36:45;65523.66;;;0.90;100.00
46614;BME280;32338;50.430;6.806;2023-04-26T06:39:12;65525.97;;;0.99;100.00
46614;BME280;32338;50.430;6.806;2023-04-26T06:41:39;65531.34;;;1.02;100.00
46614;BME280;32338;50.430;6.806;2023-04-26T06:44:05;65540.63;;;1.08;100.00
46614;BME280;32338;50.430;6.806;2023-04-26T06:46:32;65551.78;;;1.18;100.00
46614;BME280;32338;50.430;6.806;2023-04-26T06:49:00;65555.22;;;1.28;100.00
46614;BME280;32338;50.430;6.806;2023-04-26T06:51:27;65578.63;;;1.43;100.00
46614;BME280;32338;50.430;6.806;2023-04-26T06:53:54;65593.13;;;1.56;100.00
46614;BME280;32338;50.430;6.806;2023-04-26T06:56:23;65603.19;;;1.66;100.00
46614;BME280;32338;50.430;6.806;2023-04-26T06:59:00;65622.56;;;1.81;100.00
46614;BME280;32338;50.430;6.806;2023-04-26T07:01:27;65620.97;;;1.87;100.00
46614;BME280;32338;50.430;6.806;2023-04-26T07:03:57;65643.66;;;2.05;100.00
46614;BME280;32338;50.430;6.806;2023-04-26T07:06:27;65667.69;;;2.27;100.00
46614;BME280;32338;50.430;6.806;2023-04-26T07:08:54;65676.66;;;2.36;100.00
46614;BME280;32338;50.430;6.806;2023-04-26T07:11:21;65686.38;;;2.47;100.00
46614;BME280;32338;50.430;6.806;2023-04-26T07:13:47;65707.97;;;2.65;100.00
46614;BME280;32338;50.430;6.806;2023-04-26T07:16:14;65723.28;;;2.81;100.00
46614;BME280;32338;50.430;6.806;2023-04-26T07:18:40;65735.59;;;2.92;100.00
46614;BME280;32338;50.430;6.806;2023-04-26T07:21:07;65756.44;;;3.07;100.00
46614;BME280;32338;50.430;6.806;2023-04-26T07:23:35;65780.16;;;3.31;100.00
46614;BME280;32338;50.430;6.806;2023-04-26T07:26:02;65788.34;;;3.36;100.00
46614;BME280;32338;50.430;6.806;2023-04-26T07:28:29;65789.53;;;3.45;100.00
46614;BME280;32338;50.430;6.806;2023-04-26T07:30:56;65798.84;;;3.51;100.00
46614;BME280;32338;50.430;6.806;2023-04-26T07:33:22;65806.47;;;3.55;100.00
46614;BME280;32338;50.430;6.806;2023-04-26T07:35:53;65810.97;;;3.60;100.00
46614;BME280;32338;50.430;6.806;2023-04-26T07:38:20;65820.13;;;3.70;100.00
46614;BME280;32338;50.430;6.806;2023-04-26T07:40:48;65839.72;;;3.88;100.00
46614;BME280;32338;50.430;6.806;2023-04-26T07:43:15;65838.59;;;3.87;100.00
46614;BME280;32338;50.430;6.806;2023-04-26T07:45:42;65839.72;;;3.88;100.00
46614;BME280;32338;50.430;6.806;2023-04-26T07:48:09;65860.03;;;4.02;100.00
46614;BME280;32338;50.430;6.806;2023-04-26T07:50:35;65874.03;;;4.15;100.00
46614;BME280;32338;50.430;6.806;2023-04-26T07:53:02;65844.53;;;3.90;100.00
46614;BME280;32338;50.430;6.806;2023-04-26T07:55:29;65836.72;;;3.83;100.00
46614;BME280;32338;50.430;6.806;2023-04-26T07:57:57;65844.34;;;3.88;100.00
46614;BME280;32338;50.430;6.806;2023-04-26T08:00:23;65852.97;;;3.98;100.00
46614;BME280;32338;50.430;6.806;2023-04-26T08:02:50;65871.22;;;4.13;100.00
46614;BME280;32338;50.430;6.806;2023-04-26T08:05:17;65855.75;;;4.01;100.00
46614;BME280;32338;50.430;6.806;2023-04-26T08:07:43;65852.59;;;4.00;100.00
46614;BME280;32338;50.430;6.806;2023-04-26T08:10:10;65853.88;;;3.97;100.00
46614;BME280;32338;50.430;6.806;2023-04-26T08:12:37;65830.91;;;3.76;100.00
46614;BME280;32338;50.430;6.806;2023-04-26T08:15:06;65819.69;;;3.65;100.00
46614;BME280;32338;50.430;6.806;2023-04-26T08:17:33;65819.34;;;3.67;100.00
46614;BME280;32338;50.430;6.806;2023-04-26T08:20:00;65838.94;;;3.85;100.00
46614;BME280;32338;50.430;6.806;2023-04-26T08:22:26;65868.63;;;4.13;100.00
46614;BME280;32338;50.430;6.806;2023-04-26T08:24:54;65878.94;;;4.25;100.00
46614;BME280;32338;50.430;6.806;2023-04-26T08:27:21;65917.94;;;4.58;100.00
46614;BME280;32338;50.430;6.806;2023-04-26T08:29:47;65933.22;;;4.67;100.00
46614;BME280;32338;50.430;6.806;2023-04-26T08:32:15;65939.44;;;4.80;100.00
46614;BME280;32338;50.430;6.806;2023-04-26T08:34:42;65949.56;;;4.90;100.00
46614;BME280;32338;50.430;6.806;2023-04-26T08:37:09;65954.38;;;4.92;100.00
46614;BME280;32338;50.430;6.806;2023-04-26T08:39:36;65969.31;;;5.03;100.00
46614;BME280;32338;50.430;6.806;2023-04-26T08:42:05;65977.72;;;5.11;100.00
46614;BME280;32338;50.430;6.806;2023-04-26T08:44:40;65988.03;;;5.23;100.00
46614;BME280;32338;50.430;6.806;2023-04-26T08:47:13;65989.69;;;5.24;100.00
46614;BME280;32338;50.430;6.806;2023-04-26T08:49:44;65975.34;;;5.13;100.00
46614;BME280;32338;50.430;6.806;2023-04-26T08:52:14;65960.38;;;5.02;100.00
46614;BME280;32338;50.430;6.806;2023-04-26T08:54:41;65953.47;;;4.93;100.00
46614;BME280;32338;50.430;6.806;2023-04-26T08:57:08;65943.94;;;4.84;100.00
46614;BME280;32338;50.430;6.806;2023-04-26T08:59:36;65984.44;;;5.17;100.00
46614;BME280;32338;50.430;6.806;2023-04-26T09:02:04;65978.91;;;5.19;100.00
46614;BME280;32338;50.430;6.806;2023-04-26T09:04:31;65971.22;;;5.07;100.00
46614;BME280;32338;50.430;6.806;2023-04-26T09:07:01;65957.38;;;4.97;100.00
46614;BME280;32338;50.430;6.806;2023-04-26T09:09:33;65978.28;;;5.11;100.00
46614;BME280;32338;50.430;6.806;2023-04-26T09:12:00;65967.28;;;5.03;100.00
46614;BME280;32338;50.430;6.806;2023-04-26T09:14:27;65974.22;;;5.12;100.00
46614;BME280;32338;50.430;6.806;2023-04-26T09:16:54;65980.75;;;5.16;100.00
46614;BME280;32338;50.430;6.806;2023-04-26T09:19:34;65983.91;;;5.16;100.00
46614;BME280;32338;50.430;6.806;2023-04-26T09:22:02;65957.75;;;4.95;100.00
46614;BME280;32338;50.430;6.806;2023-04-26T09:24:45;65930.63;;;4.67;100.00
46614;BME280;32338;50.430;6.806;2023-04-26T09:27:12;65930.63;;;4.67;100.00
46614;BME280;32338;50.430;6.806;2023-04-26T09:29:39;65951.22;;;4.91;100.00
46614;BME280;32338;50.430;6.806;2023-04-26T09:32:06;65978.16;;;5.16;100.00
46614;BME280;32338;50.430;6.806;2023-04-26T09:34:43;65979.03;;;5.14;100.00
46614;BME280;32338;50.430;6.806;2023-04-26T09:37:11;65981.28;;;5.16;100.00
46614;BME280;32338;50.430;6.806;2023-04-26T09:39:39;65986.69;;;5.19;100.00
46614;BME280;32338;50.430;6.806;2023-04-26T09:42:06;65981.16;;;5.21;100.00
46614;BME280;32338;50.430;6.806;2023-04-26T09:44:34;66000.72;;;5.32;100.00
46614;BME280;32338;50.430;6.806;2023-04-26T09:47:02;66026.16;;;5.58;100.00
46614;BME280;32338;50.430;6.806;2023-04-26T09:49:31;66027.09;;;5.56;100.00
46614;BME280;32338;50.430;6.806;2023-04-26T09:52:02;66023.22;;;5.60;100.00
46614;BME280;32338;50.430;6.806;2023-04-26T09:54:44;66052.72;;;5.84;100.00
46614;BME280;32338;50.430;6.806;2023-04-26T09:57:12;66078.94;;;6.06;100.00
46614;BME280;32338;50.430;6.806;2023-04-26T09:59:44;66070.28;;;5.96;100.00
46614;BME280;32338;50.430;6.806;2023-04-26T10:02:17;66085.66;;;6.12;100.00
46614;BME280;32338;50.430;6.806;2023-04-26T10:04:46;66075.75;;;6.06;100.00
46614;BME280;32338;50.430;6.806;2023-04-26T10:07:14;66062.06;;;5.91;100.00
46614;BME280;32338;50.430;6.806;2023-04-26T10:09:42;66053.28;;;5.85;100.00
46614;BME280;32338;50.430;6.806;2023-04-26T10:12:10;66052.16;;;5.84;100.00
46614;BME280;32338;50.430;6.806;2023-04-26T10:14:37;66065.44;;;5.94;100.00
46614;BME280;32338;50.430;6.806;2023-04-26T10:17:04;66072.19;;;6.00;100.00
46614;BME280;32338;50.430;6.806;2023-04-26T10:19:31;66074.06;;;6.04;100.00
46614;BME280;32338;50.430;6.806;2023-04-26T10:22:02;66094.63;;;6.21;100.00
46614;BME280;32338;50.430;6.806;2023-04-26T10:24:29;66093.88;;;6.18;99.54
46614;BME280;32338;50.430;6.806;2023-04-26T10:26:58;66063.38;;;5.94;100.00
46614;BME280;32338;50.430;6.806;2023-04-26T10:30:06;66065.78;;;5.92;100.00
46614;BME280;32338;50.430;6.806;2023-04-26T10:36:01;66062.84;;;5.94;100.00
46614;BME280;32338;50.430;6.806;2023-04-26T10:38:28;66080.81;;;6.10;100.00
46614;BME280;32338;50.430;6.806;2023-04-26T10:40:55;66119.50;;;6.39;100.00
46614;BME280;32338;50.430;6.806;2023-04-26T10:43:43;66120.66;;;6.47;93.57
46614;BME280;32338;50.430;6.806;2023-04-26T10:46:34;66109.09;;;6.39;91.85
46614;BME280;32338;50.430;6.806;2023-04-26T10:49:12;66101.38;;;6.27;92.00
46614;BME280;32338;50.430;6.806;2023-04-26T10:51:39;66109.59;;;6.32;91.15
46614;BME280;32338;50.430;6.806;2023-04-26T10:54:06;66138.63;;;6.63;95.00
46614;BME280;32338;50.430;6.806;2023-04-26T10:56:51;66190.66;;;7.09;93.29
46614;BME280;32338;50.430;6.806;2023-04-26T10:59:22;66210.31;;;7.27;93.56
46614;BME280;32338;50.430;6.806;2023-04-26T11:01:51;66238.41;;;7.53;90.58
46614;BME280;32338;50.430;6.806;2023-04-26T11:04:18;66256.41;;;7.69;86.87
46614;BME280;32338;50.430;6.806;2023-04-26T11:06:49;66279.09;;;7.92;85.27
46614;BME280;32338;50.430;6.806;2023-04-26T11:09:32;66295.75;;;8.05;82.36
46614;BME280;32338;50.430;6.806;2023-04-26T11:11:59;66277.75;;;7.89;84.68
46614;BME280;32338;50.430;6.806;2023-04-26T11:14:27;66297.06;;;8.09;83.13
46614;BME280;32338;50.430;6.806;2023-04-26T11:16:53;66291.81;;;8.02;84.64
46614;BME280;32338;50.430;6.806;2023-04-26T11:19:20;66303.63;;;8.13;95.06
46614;BME280;32338;50.430;6.806;2023-04-26T11:21:47;66322.00;;;8.34;92.75
46614;BME280;32338;50.430;6.806;2023-04-26T11:24:14;66357.06;;;8.62;89.55
46614;BME280;32338;50.430;6.806;2023-04-26T11:26:40;66380.31;;;8.85;84.17
46614;BME280;32338;50.430;6.806;2023-04-26T11:29:07;66387.63;;;8.92;75.64
46614;BME280;32338;50.430;6.806;2023-04-26T11:31:39;66305.69;;;8.19;68.51
46614;BME280;32338;50.430;6.806;2023-04-26T11:34:05;66330.78;;;8.40;72.51
46614;BME280;32338;50.430;6.806;2023-04-26T11:36:35;66317.66;;;8.25;67.91
46614;BME280;32338;50.430;6.806;2023-04-26T11:39:02;66284.69;;;7.98;70.41
46614;BME280;32338;50.430;6.806;2023-04-26T11:41:29;66334.53;;;8.41;82.34
46614;BME280;32338;50.430;6.806;2023-04-26T11:43:58;66411.63;;;9.12;86.54
46614;BME280;32338;50.430;6.806;2023-04-26T11:46:24;66463.22;;;9.64;79.70
46614;BME280;32338;50.430;6.806;2023-04-26T11:48:53;66489.13;;;9.87;89.12
46614;BME280;32338;50.430;6.806;2023-04-26T11:51:20;66460.41;;;9.61;76.15
46614;BME280;32338;50.430;6.806;2023-04-26T11:53:49;66418.38;;;9.18;66.89
46614;BME280;32338;50.430;6.806;2023-04-26T11:56:17;66429.84;;;9.31;80.61
46614;BME280;32338;50.430;6.806;2023-04-26T11:58:45;66414.06;;;9.16;79.89
46614;BME280;32338;50.430;6.806;2023-04-26T12:01:19;66428.50;;;9.27;82.46
46614;BME280;32338;50.430;6.806;2023-04-26T12:03:49;66399.66;;;9.05;77.34
46614;BME280;32338;50.430;6.806;2023-04-26T12:06:17;66386.88;;;8.89;75.22
46614;BME280;32338;50.430;6.806;2023-04-26T12:08:48;66379.16;;;8.77;70.93
46614;BME280;32338;50.430;6.806;2023-04-26T12:11:16;66410.50;;;9.11;73.45
46614;BME280;32338;50.430;6.806;2023-04-26T12:13:44;66414.25;;;9.19;71.01
46614;BME280;32338;50.430;6.806;2023-04-26T12:16:11;66442.03;;;9.39;70.58
46614;BME280;32338;50.430;6.806;2023-04-26T12:18:39;66448.56;;;9.43;67.30
46614;BME280;32338;50.430;6.806;2023-04-26T12:21:06;66429.28;;;9.30;61.95
46614;BME280;32338;50.430;6.806;2023-04-26T12:23:38;66457.41;;;9.56;67.18
46614;BME280;32338;50.430;6.806;2023-04-26T12:26:06;66488.94;;;9.85;75.32
46614;BME280;32338;50.430;6.806;2023-04-26T12:28:35;66518.78;;;10.12;71.67
46614;BME280;32338;50.430;6.806;2023-04-26T12:31:02;66501.13;;;9.94;67.28
46614;BME280;32338;50.430;6.806;2023-04-26T12:33:29;66508.47;;;10.00;72.82
46614;BME280;32338;50.430;6.806;2023-04-26T12:35:57;66531.75;;;10.24;75.04
46614;BME280;32338;50.430;6.806;2023-04-26T12:38:24;66536.25;;;10.28;70.93
46614;BME280;32338;50.430;6.806;2023-04-26T12:40:52;66436.41;;;9.34;57.40
46614;BME280;32338;50.430;6.806;2023-04-26T12:43:19;66434.28;;;9.28;62.12
46614;BME280;32338;50.430;6.806;2023-04-26T12:45:48;66440.34;;;9.38;61.54
46614;BME280;32338;50.430;6.806;2023-04-26T12:48:15;66500.38;;;9.90;62.98
46614;BME280;32338;50.430;6.806;2023-04-26T12:50:41;66537.75;;;10.27;60.79
46614;BME280;32338;50.430;6.806;2023-04-26T12:53:08;66525.00;;;10.18;66.33
46614;BME280;32338;50.430;6.806;2023-04-26T12:55:36;66555.22;;;10.43;66.34
46614;BME280;32338;50.430;6.806;2023-04-26T12:58:04;66502.81;;;9.95;57.83
46614;BME280;32338;50.430;6.806;2023-04-26T13:00:31;66497.94;;;9.93;59.57
46614;BME280;32338;50.430;6.806;2023-04-26T13:02:57;66452.13;;;9.49;55.08
46614;BME280;32338;50.430;6.806;2023-04-26T13:05:24;66423.81;;;9.20;57.72